createdAt,value
2023-04-15T00:00:55.627Z,49.83
2023-04-15T00:02:27.942Z,50.06
2023-04-15T00:04:02.818Z,50.19
2023-04-15T00:05:34.596Z,50.31
2023-04-15T00:07:06.238Z,49.57
2023-04-15T00:08:38.686Z,49.57
2023-04-15T00:10:10.365Z,49.22
2023-04-15T00:11:42.313Z,49.87
2023-04-15T00:13:16.646Z,49.44
2023-04-15T00:14:48.661Z,49.75
2023-04-15T00:16:23.076Z,49.55
2023-04-15T00:17:58.039Z,49.52
2023-04-15T00:19:37.701Z,49.50
2023-04-15T00:21:09.908Z,49.96
2023-04-15T00:22:41.920Z,49.45
2023-04-15T00:24:14.705Z,49.93
2023-04-15T00:25:47.143Z,49.36
2023-04-15T00:27:18.886Z,49.66
2023-04-15T00:28:50.819Z,49.39
2023-04-15T00:32:28.056Z,49.99
2023-04-15T00:34:04.318Z,49.94
2023-04-15T00:35:40.016Z,49.96
2023-04-15T00:37:12.270Z,49.90
2023-04-15T00:38:47.052Z,49.86
2023-04-15T00:40:19.003Z,49.63
2023-04-15T00:41:54.308Z,49.75
2023-04-15T00:43:30.482Z,49.58
2023-04-15T00:45:09.015Z,49.79
2023-04-15T00:46:42.665Z,49.63
2023-04-15T00:48:16.251Z,50.06
2023-04-15T00:49:48.241Z,49.88
2023-04-15T00:51:20.322Z,49.94
2023-04-15T00:52:52.056Z,50.07
2023-04-15T00:54:23.758Z,50.15
2023-04-15T00:55:55.467Z,50.36
2023-04-15T00:57:27.582Z,50.28
2023-04-15T00:59:01.568Z,50.39
2023-04-15T01:00:33.445Z,50.72
2023-04-15T01:02:05.577Z,50.19
2023-04-15T01:03:41.702Z,50.29
2023-04-15T01:05:14.097Z,50.74
2023-04-15T01:06:46.063Z,50.58
2023-04-15T01:08:20.044Z,50.66
2023-04-15T01:09:52.130Z,50.91
2023-04-15T01:11:24.332Z,50.69
2023-04-15T01:12:57.140Z,50.45
2023-04-15T01:14:29.273Z,50.68
2023-04-15T01:16:02.549Z,50.66
2023-04-15T01:17:38.454Z,50.75
2023-04-15T01:19:10.949Z,50.59
2023-04-15T01:20:47.357Z,50.62
2023-04-15T01:22:29.996Z,50.54
2023-04-15T01:24:12.201Z,50.67
2023-04-15T01:25:46.821Z,50.87
2023-04-15T01:27:22.169Z,50.96
2023-04-15T01:28:54.124Z,50.72
2023-04-15T01:30:35.023Z,50.59
2023-04-15T01:32:07.113Z,50.59
2023-04-15T01:33:39.088Z,50.85
2023-04-15T01:35:11.053Z,50.70
2023-04-15T01:36:46.254Z,50.74
2023-04-15T01:38:20.892Z,50.72
2023-04-15T01:39:54.768Z,50.96
2023-04-15T01:41:27.258Z,51.08
2023-04-15T01:42:59.254Z,51.04
2023-04-15T01:44:31.555Z,51.41
2023-04-15T01:46:06.519Z,50.80
2023-04-15T01:47:39.442Z,50.79
2023-04-15T01:49:11.308Z,50.98
2023-04-15T01:50:45.662Z,51.15
2023-04-15T01:52:17.368Z,51.34
2023-04-15T01:53:49.182Z,51.39
2023-04-15T01:55:21.405Z,51.24
2023-04-15T01:56:53.279Z,51.26
2023-04-15T01:58:25.232Z,51.44
2023-04-15T01:59:57.449Z,51.15
2023-04-15T02:01:29.173Z,51.34
2023-04-15T02:03:01.262Z,51.17
2023-04-15T02:04:33.309Z,51.50
2023-04-15T02:06:06.357Z,50.94
2023-04-15T02:07:38.292Z,51.48
2023-04-15T02:09:14.256Z,51.52
2023-04-15T02:10:48.198Z,51.64
2023-04-15T02:12:22.312Z,51.70
2023-04-15T02:13:54.204Z,51.61
2023-04-15T02:15:26.813Z,51.70
2023-04-15T02:16:58.783Z,51.39
2023-04-15T02:18:32.202Z,51.84
2023-04-15T02:20:07.597Z,51.75
2023-04-15T02:21:40.221Z,51.69
2023-04-15T02:23:13.557Z,51.86
2023-04-15T02:24:49.646Z,51.50
2023-04-15T02:26:23.695Z,51.61
2023-04-15T02:28:09.519Z,51.26
2023-04-15T02:29:41.597Z,51.63
2023-04-15T02:31:13.566Z,51.81
2023-04-15T02:32:46.085Z,51.56
2023-04-15T02:34:18.344Z,51.47
2023-04-15T02:35:51.493Z,52.18
2023-04-15T02:37:23.856Z,51.87
2023-04-15T02:38:55.675Z,51.76
2023-04-15T02:40:27.801Z,51.97
2023-04-15T02:42:02.278Z,51.86
2023-04-15T02:43:36.279Z,51.74
2023-04-15T02:45:10.663Z,51.99
2023-04-15T02:46:45.184Z,51.84
2023-04-15T02:48:21.864Z,52.13
2023-04-15T02:49:56.300Z,52.05
2023-04-15T02:51:36.234Z,52.29
2023-04-15T02:53:07.925Z,52.12
2023-04-15T02:54:40.778Z,52.16
2023-04-15T02:56:12.824Z,52.25
2023-04-15T02:57:44.637Z,52.29
2023-04-15T02:59:19.158Z,52.46
2023-04-15T03:00:53.434Z,52.47
2023-04-15T03:02:26.026Z,52.17
2023-04-15T03:03:58.383Z,52.36
2023-04-15T03:05:30.142Z,52.44
2023-04-15T03:07:01.994Z,52.45
2023-04-15T03:08:34.739Z,52.39
2023-04-15T03:10:07.090Z,52.34
2023-04-15T03:11:40.843Z,52.19
2023-04-15T03:13:12.471Z,52.10
2023-04-15T03:14:44.083Z,51.96
2023-04-15T03:16:16.427Z,51.91
2023-04-15T03:17:49.769Z,51.80
2023-04-15T03:19:21.743Z,51.71
2023-04-15T03:20:53.574Z,51.93
2023-04-15T03:22:31.112Z,52.01
2023-04-15T03:24:05.507Z,51.54
2023-04-15T03:25:38.310Z,51.63
2023-04-15T03:27:09.946Z,51.74
2023-04-15T03:28:41.616Z,51.47
2023-04-15T03:30:13.407Z,51.67
2023-04-15T03:31:47.124Z,51.82
2023-04-15T03:33:19.330Z,51.99
2023-04-15T03:34:51.698Z,51.70
2023-04-15T03:36:23.553Z,51.61
2023-04-15T03:37:57.129Z,51.37
2023-04-15T03:39:28.919Z,50.98
2023-04-15T03:41:00.499Z,50.96
2023-04-15T03:42:32.210Z,51.28
2023-04-15T03:44:03.868Z,51.43
2023-04-15T03:45:35.823Z,51.56
2023-04-15T03:47:07.833Z,51.92
2023-04-15T03:48:42.604Z,51.56
2023-04-15T03:50:14.164Z,51.75
2023-04-15T03:51:45.923Z,51.75
2023-04-15T03:53:17.664Z,51.92
2023-04-15T03:54:49.825Z,52.33
2023-04-15T03:56:21.700Z,52.41
2023-04-15T03:57:53.635Z,52.45
2023-04-15T03:59:25.514Z,52.58
2023-04-15T04:00:57.269Z,52.37
2023-04-15T04:02:29.032Z,52.62
2023-04-15T04:04:01.010Z,52.67
2023-04-15T04:05:32.611Z,52.95
2023-04-15T04:07:04.300Z,52.80
2023-04-15T04:08:36.031Z,53.08
2023-04-15T04:10:08.311Z,53.12
2023-04-15T04:11:40.450Z,52.67
2023-04-15T04:13:14.834Z,52.72
2023-04-15T04:14:47.356Z,52.48
2023-04-15T04:16:20.346Z,52.63
2023-04-15T04:17:52.610Z,52.72
2023-04-15T04:19:24.395Z,52.45
2023-04-15T04:20:56.112Z,52.30
2023-04-15T04:22:28.213Z,52.33
2023-04-15T04:24:00.155Z,52.15
2023-04-15T04:25:32.492Z,52.40
2023-04-15T04:27:04.165Z,52.23
2023-04-15T04:28:36.723Z,52.76
2023-04-15T04:30:11.760Z,52.62
2023-04-15T04:31:43.809Z,53.02
2023-04-15T04:33:18.901Z,52.75
2023-04-15T04:34:50.851Z,52.85
2023-04-15T04:36:22.670Z,52.68
2023-04-15T04:37:54.435Z,52.84
2023-04-15T04:39:26.501Z,53.02
2023-04-15T04:40:58.610Z,52.44
2023-04-15T04:42:30.480Z,52.76
2023-04-15T04:44:02.675Z,52.86
2023-04-15T04:45:34.543Z,52.79
2023-04-15T04:47:07.789Z,52.77
2023-04-15T04:48:39.904Z,52.93
2023-04-15T04:50:15.405Z,53.13
2023-04-15T04:51:48.709Z,53.31
2023-04-15T04:53:20.612Z,53.18
2023-04-15T04:54:52.273Z,53.09
2023-04-15T04:56:23.878Z,52.51
2023-04-15T04:57:56.115Z,53.19
2023-04-15T04:59:28.308Z,52.38
2023-04-15T05:01:02.883Z,52.26
2023-04-15T05:02:42.036Z,52.19
2023-04-15T05:04:13.987Z,52.86
2023-04-15T05:05:46.147Z,52.06
2023-04-15T05:07:22.068Z,52.06
2023-04-15T05:09:17.727Z,52.83
2023-04-15T05:10:52.941Z,52.96
2023-04-15T05:12:32.073Z,52.16
2023-04-15T05:14:06.525Z,52.27
2023-04-15T05:15:44.343Z,51.92
2023-04-15T05:17:25.168Z,52.29
2023-04-15T05:19:03.232Z,52.57
2023-04-15T05:20:35.340Z,51.92
2023-04-15T05:22:22.737Z,52.15
2023-04-15T05:24:08.998Z,52.75
2023-04-15T05:25:44.434Z,52.57
2023-04-15T05:27:16.304Z,51.98
2023-04-15T05:28:54.974Z,52.07
2023-04-15T05:30:27.981Z,52.01
2023-04-15T05:32:07.186Z,52.39
2023-04-15T05:33:40.775Z,52.34
2023-04-15T05:35:39.094Z,52.33
2023-04-15T05:37:15.116Z,51.47
2023-04-15T05:38:49.451Z,51.85
2023-04-15T05:40:33.363Z,51.77
2023-04-15T05:42:09.126Z,51.92
2023-04-15T05:43:46.212Z,51.82
2023-04-15T05:45:31.317Z,51.64
2023-04-15T05:47:04.069Z,51.74
2023-04-15T05:48:49.487Z,51.75
2023-04-15T05:50:44.693Z,51.73
2023-04-15T05:52:19.980Z,51.71
2023-04-15T05:53:51.838Z,51.87
2023-04-15T05:55:31.248Z,51.56
2023-04-15T05:57:07.253Z,51.49
2023-04-15T06:00:42.099Z,51.75
2023-04-15T06:02:35.510Z,51.42
2023-04-15T06:04:18.103Z,51.71
2023-04-15T06:05:54.862Z,51.75
2023-04-15T06:07:31.606Z,51.47
2023-04-15T06:10:57.927Z,51.22
2023-04-15T06:12:48.563Z,51.36
2023-04-15T06:14:25.936Z,51.07
2023-04-15T06:16:00.469Z,51.13
2023-04-15T06:17:34.024Z,51.32
2023-04-15T06:19:13.288Z,50.72
2023-04-15T06:20:45.757Z,50.90
2023-04-15T06:22:24.365Z,50.84
2023-04-15T06:24:08.332Z,50.82
2023-04-15T06:25:45.075Z,50.59
2023-04-15T06:27:17.086Z,50.37
2023-04-15T06:29:03.303Z,49.88
2023-04-15T06:30:46.508Z,50.32
2023-04-15T06:32:32.785Z,50.36
2023-04-15T06:34:20.406Z,50.57
2023-04-15T06:36:07.186Z,50.34
2023-04-15T06:37:59.403Z,49.65
2023-04-15T06:39:41.954Z,49.58
2023-04-15T06:43:23.044Z,49.61
2023-04-15T06:45:59.973Z,49.39
2023-04-15T06:47:40.534Z,49.34
2023-04-15T06:51:26.664Z,49.17
2023-04-15T06:53:19.975Z,48.62
2023-04-15T06:58:00.787Z,48.25
2023-04-15T06:59:51.342Z,48.03
2023-04-15T07:04:34.827Z,48.03
2023-04-15T07:06:35.760Z,47.87
2023-04-15T07:08:10.804Z,47.74
2023-04-15T07:09:50.555Z,47.50
2023-04-15T07:11:22.586Z,47.38
2023-04-15T07:12:58.218Z,47.65
2023-04-15T07:14:30.490Z,47.77
2023-04-15T07:16:02.768Z,47.38
2023-04-15T07:17:38.378Z,47.64
2023-04-15T07:19:11.902Z,47.79
2023-04-15T07:20:44.155Z,47.68
2023-04-15T07:22:18.075Z,47.85
2023-04-15T07:23:52.195Z,47.86
2023-04-15T07:25:26.791Z,47.72
2023-04-15T07:27:01.496Z,47.84
2023-04-15T07:28:37.686Z,47.25
2023-04-15T07:30:09.699Z,47.27
2023-04-15T07:31:42.477Z,47.25
2023-04-15T07:33:14.133Z,47.18
2023-04-15T07:34:50.756Z,47.07
2023-04-15T07:36:23.036Z,46.85
2023-04-15T07:37:55.264Z,46.95
2023-04-15T07:39:27.634Z,46.77
2023-04-15T07:40:59.705Z,46.57
2023-04-15T07:42:34.540Z,46.22
2023-04-15T07:44:06.298Z,46.59
2023-04-15T07:45:39.010Z,46.06
2023-04-15T07:47:13.656Z,45.91
2023-04-15T07:48:46.734Z,46.53
2023-04-15T07:50:20.018Z,46.38
2023-04-15T07:51:51.896Z,45.88
2023-04-15T07:53:23.820Z,45.96
2023-04-15T07:54:55.801Z,45.55
2023-04-15T07:56:28.307Z,45.47
2023-04-15T07:58:02.867Z,45.42
2023-04-15T07:59:34.588Z,45.55
2023-04-15T08:01:07.175Z,45.36
2023-04-15T08:02:41.998Z,45.30
2023-04-15T08:04:13.775Z,45.11
2023-04-15T08:05:45.764Z,45.26
2023-04-15T08:07:20.434Z,44.95
2023-04-15T08:08:54.685Z,44.85
2023-04-15T08:10:29.489Z,44.56
2023-04-15T08:12:01.242Z,44.53
2023-04-15T08:13:35.784Z,44.78
2023-04-15T08:15:08.477Z,44.60
2023-04-15T08:16:40.268Z,44.54
2023-04-15T08:18:12.318Z,44.17
2023-04-15T08:19:44.124Z,44.41
2023-04-15T08:21:19.810Z,44.10
2023-04-15T08:22:52.860Z,43.88
2023-04-15T08:24:26.947Z,43.74
2023-04-15T08:26:01.028Z,43.76
2023-04-15T08:27:36.027Z,43.87
2023-04-15T08:29:07.915Z,43.41
2023-04-15T08:30:47.257Z,43.32
2023-04-15T08:32:19.855Z,43.45
2023-04-15T08:33:55.945Z,43.42
2023-04-15T08:35:32.106Z,43.52
2023-04-15T08:37:12.743Z,43.38
2023-04-15T08:38:47.222Z,43.29
2023-04-15T08:40:19.128Z,43.12
2023-04-15T08:41:51.075Z,43.07
2023-04-15T08:43:27.050Z,42.83
2023-04-15T08:45:01.495Z,42.73
2023-04-15T08:46:36.257Z,42.18
2023-04-15T08:48:08.061Z,42.13
2023-04-15T08:49:43.297Z,41.94
2023-04-15T08:51:16.633Z,41.88
2023-04-15T08:52:48.397Z,42.05
2023-04-15T08:54:29.039Z,42.00
2023-04-15T08:56:03.709Z,41.80
2023-04-15T08:57:36.972Z,41.89
2023-04-15T08:59:11.486Z,41.84
2023-04-15T09:00:46.079Z,41.77
2023-04-15T09:02:18.045Z,41.43
2023-04-15T09:03:53.484Z,41.59
2023-04-15T09:05:26.759Z,41.46
2023-04-15T09:06:58.630Z,41.57
2023-04-15T09:08:30.626Z,41.32
2023-04-15T09:10:16.758Z,41.01
2023-04-15T09:11:50.217Z,41.36
2023-04-15T09:13:22.479Z,41.32
2023-04-15T09:14:54.357Z,41.05
2023-04-15T09:16:26.499Z,40.72
2023-04-15T09:18:01.586Z,40.64
2023-04-15T09:19:39.515Z,40.44
2023-04-15T09:21:16.149Z,40.48
2023-04-15T09:22:50.878Z,40.24
2023-04-15T09:24:33.243Z,40.22
2023-04-15T09:26:08.100Z,40.34
2023-04-15T09:27:46.783Z,40.12
2023-04-15T09:29:22.018Z,40.04
2023-04-15T09:31:00.250Z,39.80
2023-04-15T09:32:34.716Z,39.96
2023-04-15T09:34:15.829Z,39.93
2023-04-15T09:36:26.334Z,39.90
2023-04-15T09:38:07.954Z,39.81
2023-04-15T09:39:48.905Z,39.59
2023-04-15T09:41:22.764Z,39.65
2023-04-15T09:42:57.617Z,39.62
2023-04-15T09:44:41.071Z,39.40
2023-04-15T09:46:13.185Z,39.34
2023-04-15T09:47:50.771Z,39.13
2023-04-15T09:49:24.929Z,38.81
2023-04-15T09:51:00.885Z,38.85
2023-04-15T09:52:39.118Z,38.83
2023-04-15T09:54:17.937Z,38.75
2023-04-15T09:56:00.193Z,38.65
2023-04-15T09:57:39.732Z,38.75
2023-04-15T09:59:16.260Z,38.73
2023-04-15T10:00:50.336Z,38.39
2023-04-15T10:02:26.080Z,38.37
2023-04-15T10:04:01.901Z,38.28
2023-04-15T10:05:37.239Z,38.16
2023-04-15T10:07:12.218Z,38.18
2023-04-15T10:08:44.644Z,38.12
2023-04-15T10:10:17.190Z,38.23
2023-04-15T10:11:52.085Z,38.32
2023-04-15T10:14:08.645Z,38.13
2023-04-15T10:15:58.950Z,38.02
2023-04-15T10:17:43.613Z,37.89
2023-04-15T10:19:51.991Z,38.08
2023-04-15T10:21:35.898Z,37.73
2023-04-15T10:25:06.291Z,37.84
2023-04-15T10:26:49.638Z,37.57
2023-04-15T10:28:23.151Z,37.36
2023-04-15T10:29:59.065Z,37.41
2023-04-15T10:31:34.640Z,37.34
2023-04-15T10:33:10.763Z,37.22
2023-04-15T10:34:54.313Z,37.22
2023-04-15T10:36:29.112Z,37.19
2023-04-15T10:38:00.866Z,37.08
2023-04-15T10:39:44.371Z,36.83
2023-04-15T10:41:25.047Z,37.09
2023-04-15T10:42:57.360Z,36.96
2023-04-15T10:44:32.282Z,36.91
2023-04-15T10:46:06.380Z,36.89
2023-04-15T10:47:39.283Z,36.95
2023-04-15T10:49:14.119Z,36.85
2023-04-15T10:51:00.869Z,36.75
2023-04-15T10:52:33.490Z,36.74
2023-04-15T10:54:05.811Z,36.56
2023-04-15T10:55:37.861Z,36.61
2023-04-15T10:57:15.452Z,36.38
2023-04-15T10:58:47.645Z,36.52
2023-04-15T11:00:27.069Z,36.48
2023-04-15T11:02:05.380Z,36.33
2023-04-15T11:03:40.974Z,36.33
2023-04-15T11:05:17.912Z,36.03
2023-04-15T11:06:51.659Z,35.91
2023-04-15T11:08:46.224Z,35.88
2023-04-15T11:10:18.135Z,35.69
2023-04-15T11:12:06.689Z,35.63
2023-04-15T11:13:54.576Z,35.54
2023-04-15T11:15:34.356Z,35.72
2023-04-15T11:17:06.128Z,35.49
2023-04-15T11:18:40.368Z,35.59
2023-04-15T11:20:15.270Z,35.62
2023-04-15T11:21:46.987Z,35.49
2023-04-15T11:23:19.204Z,35.44
2023-04-15T11:24:51.299Z,35.32
2023-04-15T11:26:25.984Z,35.16
2023-04-15T11:28:00.819Z,34.85
2023-04-15T11:29:35.616Z,35.08
2023-04-15T11:31:08.870Z,34.91
2023-04-15T11:32:42.624Z,34.94
2023-04-15T11:34:14.654Z,35.04
2023-04-15T11:36:27.364Z,34.82
2023-04-15T11:38:12.668Z,34.79
2023-04-15T11:39:51.021Z,35.00
2023-04-15T11:41:28.541Z,34.85
2023-04-15T11:43:17.149Z,34.78
2023-04-15T11:45:06.973Z,34.73
2023-04-15T11:47:08.614Z,34.70
2023-04-15T11:48:47.130Z,34.77
2023-04-15T11:50:48.862Z,34.60
2023-04-15T11:52:38.760Z,34.65
2023-04-15T11:54:26.679Z,34.46
2023-04-15T11:56:21.166Z,34.50
2023-04-15T11:58:16.377Z,34.41
2023-04-15T11:59:51.687Z,34.32
2023-04-15T12:04:11.914Z,34.01
2023-04-15T12:06:35.776Z,34.18
2023-04-15T12:08:07.699Z,33.94
2023-04-15T12:09:42.740Z,34.01
2023-04-15T12:11:14.850Z,33.91
2023-04-15T12:12:49.665Z,34.07
2023-04-15T12:16:28.597Z,33.82
2023-04-15T12:18:00.334Z,33.83
2023-04-15T12:19:42.901Z,33.86
2023-04-15T12:21:20.107Z,33.76
2023-04-15T12:22:53.423Z,33.75
2023-04-15T12:24:50.585Z,33.73
2023-04-15T12:26:56.499Z,33.92
2023-04-15T12:28:34.661Z,33.72
2023-04-15T12:30:15.577Z,33.61
2023-04-15T12:31:56.008Z,33.58
2023-04-15T12:33:42.344Z,33.68
2023-04-15T12:35:47.824Z,33.41
2023-04-15T12:39:29.265Z,33.24
2023-04-15T12:42:50.676Z,33.27
2023-04-15T12:44:32.022Z,33.12
2023-04-15T12:46:43.906Z,33.06
2023-04-15T12:48:18.999Z,32.74
2023-04-15T12:49:53.897Z,32.81
2023-04-15T12:51:32.140Z,32.83
2023-04-15T12:53:05.329Z,32.64
2023-04-15T12:54:37.652Z,32.76
2023-04-15T12:56:12.224Z,33.03
2023-04-15T12:58:07.001Z,32.88
2023-04-15T13:00:03.850Z,32.62
2023-04-15T13:01:39.073Z,32.56
2023-04-15T13:03:17.019Z,32.67
2023-04-15T13:04:49.574Z,32.39
2023-04-15T13:06:40.384Z,32.51
2023-04-15T13:08:12.513Z,32.50
2023-04-15T13:09:57.906Z,32.08
2023-04-15T13:11:31.333Z,32.08
2023-04-15T13:13:10.952Z,32.12
2023-04-15T13:16:34.614Z,32.04
2023-04-15T13:18:07.633Z,32.07
2023-04-15T13:19:44.692Z,32.03
2023-04-15T13:21:16.829Z,32.30
2023-04-15T13:22:53.177Z,32.23
2023-04-15T13:24:27.329Z,32.22
2023-04-15T13:25:58.978Z,32.11
2023-04-15T13:27:33.909Z,32.02
2023-04-15T13:29:07.966Z,32.14
2023-04-15T13:30:39.754Z,32.02
2023-04-15T13:32:11.837Z,32.10
2023-04-15T13:33:43.717Z,32.01
2023-04-15T13:35:18.322Z,31.61
2023-04-15T13:38:35.720Z,31.74
2023-04-15T13:40:07.983Z,31.73
2023-04-15T13:41:40.255Z,31.66
2023-04-15T13:43:12.655Z,31.66
2023-04-15T13:44:55.938Z,31.44
2023-04-15T13:46:33.496Z,31.21
2023-04-15T13:48:05.312Z,31.38
2023-04-15T13:49:38.373Z,31.32
2023-04-15T13:51:10.359Z,31.18
2023-04-15T13:52:41.949Z,30.93
2023-04-15T13:54:17.162Z,31.11
2023-04-15T13:55:59.123Z,31.08
2023-04-15T13:57:31.418Z,30.92
2023-04-15T13:59:04.275Z,30.98
2023-04-15T14:02:21.990Z,30.97
2023-04-15T14:05:45.707Z,31.02
2023-04-15T14:07:18.088Z,30.93
2023-04-15T14:08:58.471Z,30.96
2023-04-15T14:10:42.376Z,30.99
2023-04-15T14:12:19.347Z,31.08
2023-04-15T14:13:51.158Z,30.89
2023-04-15T14:15:28.299Z,30.90
2023-04-15T14:17:00.498Z,30.73
2023-04-15T14:18:38.728Z,30.69
2023-04-15T14:22:19.312Z,30.47
2023-04-15T14:23:59.032Z,30.54
2023-04-15T14:25:34.083Z,30.45
2023-04-15T14:27:12.479Z,30.46
2023-04-15T14:28:45.496Z,30.73
2023-04-15T14:30:22.412Z,30.71
2023-04-15T14:32:10.971Z,30.58
2023-04-15T14:33:45.309Z,30.66
2023-04-15T14:35:17.245Z,30.62
2023-04-15T14:37:16.871Z,30.56
2023-04-15T14:41:18.662Z,30.65
2023-04-15T14:42:50.794Z,30.77
2023-04-15T14:44:47.576Z,30.80
2023-04-15T14:46:19.675Z,30.87
2023-04-15T14:47:55.656Z,30.69
2023-04-15T14:49:34.812Z,30.73
2023-04-15T14:52:20.586Z,30.66
2023-04-15T14:53:55.228Z,30.66
2023-04-15T14:55:51.874Z,30.80
2023-04-15T14:57:44.714Z,30.77
2023-04-15T14:59:45.150Z,30.75
2023-04-15T15:01:15.531Z,30.66
2023-04-15T15:02:52.751Z,30.67
2023-04-15T15:05:09.081Z,30.73
2023-04-15T15:06:41.158Z,30.66
2023-04-15T15:08:20.878Z,30.71
2023-04-15T15:09:52.841Z,30.93
2023-04-15T15:11:33.653Z,30.79
2023-04-15T15:13:16.440Z,30.88
2023-04-15T15:17:09.333Z,30.49
2023-04-15T15:18:59.742Z,30.70
2023-04-15T15:20:34.569Z,30.56
2023-04-15T15:22:06.524Z,30.54
2023-04-15T15:23:42.921Z,30.61
2023-04-15T15:25:14.804Z,30.54
2023-04-15T15:26:51.833Z,30.70
2023-04-15T15:28:23.989Z,30.50
2023-04-15T15:30:02.102Z,30.49
2023-04-15T15:31:43.271Z,30.57
2023-04-15T15:33:19.608Z,30.59
2023-04-15T15:34:55.085Z,30.64
2023-04-15T15:36:37.171Z,30.79
2023-04-15T15:38:09.043Z,30.64
2023-04-15T15:39:43.549Z,30.80
2023-04-15T15:41:15.899Z,30.70
2023-04-15T15:42:53.372Z,30.85
2023-04-15T15:44:32.540Z,30.73
2023-04-15T15:46:08.422Z,30.74
2023-04-15T15:47:42.467Z,30.72
2023-04-15T15:49:14.446Z,30.91
2023-04-15T15:50:50.123Z,30.88
2023-04-15T15:52:21.849Z,31.06
2023-04-15T15:53:54.001Z,30.92
2023-04-15T15:55:31.917Z,30.83
2023-04-15T15:57:19.056Z,30.77
2023-04-15T15:58:51.863Z,31.06
2023-04-15T16:01:10.213Z,31.02
2023-04-15T16:04:37.082Z,31.08
2023-04-15T16:06:31.728Z,30.97
2023-04-15T16:08:11.600Z,30.98
2023-04-15T16:09:55.306Z,30.89
2023-04-15T16:12:07.506Z,30.98
2023-04-15T16:13:48.267Z,30.95
2023-04-15T16:15:20.567Z,31.12
2023-04-15T16:16:57.619Z,31.33
2023-04-15T16:18:35.252Z,31.10
2023-04-15T16:20:19.285Z,31.18
2023-04-15T16:22:41.603Z,31.24
2023-04-15T16:24:14.097Z,31.02
2023-04-15T16:27:32.836Z,30.95
2023-04-15T16:29:08.726Z,31.13
2023-04-15T16:30:41.574Z,30.94
2023-04-15T16:32:19.337Z,31.08
2023-04-15T16:35:50.451Z,31.16
2023-04-15T16:47:14.352Z,31.20
2023-04-15T16:49:12.527Z,31.08
2023-04-15T16:50:48.689Z,31.19
2023-04-15T16:52:21.637Z,31.18
2023-04-15T16:53:54.683Z,31.00
2023-04-15T16:55:27.686Z,30.98
2023-04-15T16:57:03.596Z,31.01
2023-04-15T16:58:45.057Z,31.05
2023-04-15T17:00:27.813Z,31.15
2023-04-15T17:02:05.725Z,31.13
2023-04-15T17:03:39.208Z,31.16
2023-04-15T17:05:24.195Z,31.36
2023-04-15T17:07:14.021Z,31.11
2023-04-15T17:13:03.504Z,31.44
2023-04-15T17:14:40.906Z,31.45
2023-04-15T17:16:16.102Z,31.41
2023-04-15T17:17:48.132Z,31.49
2023-04-15T17:19:31.841Z,31.55
2023-04-15T17:21:09.114Z,31.58
2023-04-15T17:32:12.208Z,32.10
2023-04-15T17:33:57.482Z,32.18
2023-04-15T17:35:38.133Z,32.35
2023-04-15T17:37:10.827Z,32.34
2023-04-15T17:38:43.067Z,32.59
2023-04-15T17:40:16.338Z,32.68
2023-04-15T17:41:51.599Z,32.62
2023-04-15T17:43:23.883Z,32.94
2023-04-15T17:44:59.872Z,32.79
2023-04-15T17:46:32.176Z,32.89
2023-04-15T17:48:05.491Z,33.08
2023-04-15T17:49:38.676Z,33.08
2023-04-15T17:51:10.803Z,33.00
2023-04-15T17:52:42.760Z,32.79
2023-04-15T17:54:14.689Z,32.86
2023-04-15T17:55:46.952Z,32.92
2023-04-15T17:57:18.874Z,33.04
2023-04-15T17:58:54.687Z,33.40
2023-04-15T18:00:33.065Z,33.30
2023-04-15T18:02:06.520Z,33.45
2023-04-15T18:03:38.581Z,33.02
2023-04-15T18:05:10.769Z,33.43
2023-04-15T18:06:42.846Z,33.32
2023-04-15T18:08:16.093Z,33.45
2023-04-15T18:09:47.841Z,33.46
2023-04-15T18:11:20.169Z,33.30
2023-04-15T18:12:51.925Z,33.74
2023-04-15T18:14:34.156Z,33.66
2023-04-15T18:16:07.439Z,33.64
2023-04-15T18:17:39.413Z,33.73
2023-04-15T18:19:11.340Z,33.52
2023-04-15T18:20:43.492Z,33.82
2023-04-15T18:22:15.289Z,33.77
2023-04-15T18:23:47.191Z,33.84
2023-04-15T18:25:19.438Z,33.61
2023-04-15T18:26:51.314Z,33.89
2023-04-15T18:28:23.252Z,33.59
2023-04-15T18:29:55.073Z,34.05
2023-04-15T18:31:28.039Z,34.10
2023-04-15T18:33:00.277Z,34.01
2023-04-15T18:34:31.962Z,33.57
2023-04-15T18:36:04.267Z,33.70
2023-04-15T18:37:37.956Z,33.69
2023-04-15T18:39:10.143Z,33.89
2023-04-15T18:40:42.306Z,33.86
2023-04-15T18:42:19.607Z,34.04
2023-04-15T18:43:51.998Z,33.72
2023-04-15T18:45:24.437Z,33.89
2023-04-15T18:46:57.120Z,34.20
2023-04-15T18:48:29.489Z,34.27
2023-04-15T18:50:01.609Z,34.21
2023-04-15T18:51:34.694Z,34.22
2023-04-15T18:53:07.225Z,34.33
2023-04-15T18:54:39.437Z,34.49
2023-04-15T18:56:11.393Z,34.48
2023-04-15T18:57:54.226Z,34.45
2023-04-15T18:59:30.551Z,34.64
2023-04-15T19:01:04.988Z,34.38
2023-04-15T19:02:36.907Z,34.54
2023-04-15T19:04:10.620Z,34.78
2023-04-15T19:05:42.433Z,34.72
2023-04-15T19:07:16.518Z,34.61
2023-04-15T19:08:50.286Z,34.73
2023-04-15T19:10:24.653Z,34.78
2023-04-15T19:11:59.584Z,34.75
2023-04-15T19:13:33.116Z,34.92
2023-04-15T19:15:08.342Z,34.77
2023-04-15T19:16:40.568Z,34.89
2023-04-15T19:18:12.730Z,34.93
2023-04-15T19:19:44.680Z,34.83
2023-04-15T19:21:16.900Z,34.87
2023-04-15T19:22:49.290Z,34.69
2023-04-15T19:24:23.467Z,34.87
2023-04-15T19:25:55.735Z,34.78
2023-04-15T19:27:28.108Z,35.01
2023-04-15T19:28:59.770Z,34.96
2023-04-15T19:30:33.252Z,34.94
2023-04-15T19:32:05.775Z,34.97
2023-04-15T19:33:37.941Z,34.99
2023-04-15T19:35:11.545Z,35.03
2023-04-15T19:36:44.002Z,35.12
2023-04-15T19:38:16.289Z,34.98
2023-04-15T19:39:48.112Z,35.02
2023-04-15T19:41:19.861Z,34.99
2023-04-15T19:42:51.674Z,34.91
2023-04-15T19:44:25.612Z,34.80
2023-04-15T19:45:57.271Z,34.76
2023-04-15T19:47:29.055Z,34.84
2023-04-15T19:49:01.693Z,35.04
2023-04-15T19:50:35.812Z,35.23
2023-04-15T19:52:34.148Z,34.99
2023-04-15T19:54:07.229Z,35.06
2023-04-15T19:55:39.699Z,35.31
2023-04-15T19:57:21.182Z,35.03
2023-04-15T19:58:53.387Z,35.03
2023-04-15T20:00:33.668Z,34.85
2023-04-15T20:02:09.660Z,34.98
2023-04-15T20:03:52.521Z,34.82
2023-04-15T20:05:25.296Z,34.85
2023-04-15T20:07:00.012Z,35.19
2023-04-15T20:08:32.625Z,34.89
2023-04-15T20:10:12.480Z,34.98
2023-04-15T20:12:47.510Z,35.01
2023-04-15T20:13:36.880Z,34.92
2023-04-15T20:15:39.637Z,35.03
2023-04-15T20:17:14.642Z,34.90
2023-04-15T20:18:46.953Z,35.15
2023-04-15T20:20:19.402Z,35.02
2023-04-15T20:21:57.265Z,35.18
2023-04-15T20:23:41.238Z,35.32
2023-04-15T20:25:15.561Z,35.21
2023-04-15T20:26:48.818Z,34.95
2023-04-15T20:28:28.394Z,35.03
2023-04-15T20:30:04.759Z,35.02
2023-04-15T20:31:37.720Z,35.08
2023-04-15T20:33:09.798Z,34.97
2023-04-15T20:34:42.107Z,35.03
2023-04-15T20:36:18.241Z,35.08
2023-04-15T20:37:49.890Z,35.03
2023-04-15T20:39:21.712Z,35.01
2023-04-15T20:40:53.587Z,34.97
2023-04-15T20:42:25.242Z,35.25
2023-04-15T20:43:57.560Z,35.18
2023-04-15T20:45:29.461Z,35.14
2023-04-15T20:47:01.686Z,34.90
2023-04-15T20:48:33.869Z,35.15
2023-04-15T20:50:07.585Z,35.22
2023-04-15T20:51:39.767Z,35.09
2023-04-15T20:53:11.977Z,35.26
2023-04-15T20:54:44.058Z,35.34
2023-04-15T20:56:17.906Z,35.17
2023-04-15T20:57:49.831Z,35.29
2023-04-15T20:59:21.762Z,35.39
2023-04-15T21:00:55.356Z,35.26
2023-04-15T21:02:30.510Z,35.22
2023-04-15T21:04:03.544Z,35.13
2023-04-15T21:05:35.325Z,35.14
2023-04-15T21:07:08.186Z,35.31
2023-04-15T21:08:40.176Z,35.54
2023-04-15T21:10:13.114Z,35.27
2023-04-15T21:13:50.326Z,35.52
2023-04-15T21:17:58.819Z,35.62
2023-04-15T21:19:30.605Z,35.81
2023-04-15T21:21:02.715Z,35.74
2023-04-15T21:22:34.502Z,35.85
2023-04-15T21:24:08.088Z,35.30
2023-04-15T21:25:39.906Z,35.48
2023-04-15T21:27:14.611Z,35.69
2023-04-15T21:28:46.335Z,35.68
2023-04-15T21:30:18.441Z,35.78
2023-04-15T21:31:50.710Z,35.71
2023-04-15T21:33:22.970Z,35.64
2023-04-15T21:34:55.020Z,35.54
2023-04-15T21:36:27.171Z,35.29
2023-04-15T21:37:59.118Z,35.47
2023-04-15T21:39:31.251Z,35.41
2023-04-15T21:41:07.068Z,35.72
2023-04-15T21:42:39.355Z,35.87
2023-04-15T21:44:12.643Z,35.71
2023-04-15T21:46:21.239Z,36.00
2023-04-15T21:50:07.483Z,35.68
2023-04-15T21:54:00.212Z,35.77
2023-04-15T21:55:38.114Z,36.12
2023-04-15T21:57:10.092Z,35.72
2023-04-15T21:58:42.412Z,35.91
2023-04-15T22:07:16.897Z,35.76